sensor_id;sensor_type;location;lat;lon;timestamp;P1;durP1;ratioP1;P2;durP2;ratioP2
23682;SDS011;24897;53.514;10.482;2023-03-21T00:02:04;84.13;;;55.70;;
23682;SDS011;24897;53.514;10.482;2023-03-21T00:04:48;81.07;;;55.83;;
23682;SDS011;24897;53.514;10.482;2023-03-21T00:07:32;80.87;;;54.50;;
23682;SDS011;24897;53.514;10.482;2023-03-21T00:10:16;78.27;;;54.70;;
23682;SDS011;24897;53.514;10.482;2023-03-21T00:13:01;85.80;;;56.27;;
23682;SDS011;24897;53.514;10.482;2023-03-21T00:15:46;86.43;;;55.10;;
23682;SDS011;24897;53.514;10.482;2023-03-21T00:18:33;88.40;;;57.83;;
23682;SDS011;24897;53.514;10.482;2023-03-21T00:21:24;100.43;;;60.27;;
23682;SDS011;24897;53.514;10.482;2023-03-21T00:24:11;90.90;;;57.67;;
23682;SDS011;24897;53.514;10.482;2023-03-21T00:26:55;90.53;;;57.60;;
23682;SDS011;24897;53.514;10.482;2023-03-21T00:29:39;92.87;;;59.37;;
23682;SDS011;24897;53.514;10.482;2023-03-21T00:32:23;86.10;;;56.60;;
23682;SDS011;24897;53.514;10.482;2023-03-21T00:35:08;84.43;;;55.77;;
23682;SDS011;24897;53.514;10.482;2023-03-21T00:37:52;91.90;;;57.93;;
23682;SDS011;24897;53.514;10.482;2023-03-21T00:40:36;92.43;;;58.13;;
23682;SDS011;24897;53.514;10.482;2023-03-21T00:43:21;96.47;;;58.90;;
23682;SDS011;24897;53.514;10.482;2023-03-21T00:46:12;96.57;;;58.47;;
23682;SDS011;24897;53.514;10.482;2023-03-21T00:48:56;94.33;;;59.80;;
23682;SDS011;24897;53.514;10.482;2023-03-21T00:51:41;87.70;;;56.70;;
23682;SDS011;24897;53.514;10.482;2023-03-21T00:54:26;94.77;;;60.37;;
23682;SDS011;24897;53.514;10.482;2023-03-21T00:57:10;102.00;;;61.87;;
23682;SDS011;24897;53.514;10.482;2023-03-21T00:59:54;95.03;;;59.50;;
23682;SDS011;24897;53.514;10.482;2023-03-21T01:02:40;100.03;;;62.53;;
23682;SDS011;24897;53.514;10.482;2023-03-21T01:05:41;94.43;;;58.80;;
23682;SDS011;24897;53.514;10.482;2023-03-21T01:08:47;100.17;;;61.87;;
23682;SDS011;24897;53.514;10.482;2023-03-21T01:11:31;94.30;;;59.97;;
23682;SDS011;24897;53.514;10.482;2023-03-21T01:14:16;105.67;;;63.57;;
23682;SDS011;24897;53.514;10.482;2023-03-21T01:17:01;108.27;;;65.70;;
23682;SDS011;24897;53.514;10.482;2023-03-21T01:19:46;104.37;;;64.40;;
23682;SDS011;24897;53.514;10.482;2023-03-21T01:22:30;110.93;;;65.83;;
23682;SDS011;24897;53.514;10.482;2023-03-21T01:25:14;108.67;;;65.07;;
23682;SDS011;24897;53.514;10.482;2023-03-21T01:27:58;109.20;;;64.60;;
23682;SDS011;24897;53.514;10.482;2023-03-21T01:30:43;111.97;;;62.07;;
23682;SDS011;24897;53.514;10.482;2023-03-21T01:33:32;111.43;;;65.77;;
23682;SDS011;24897;53.514;10.482;2023-03-21T01:36:21;100.93;;;61.77;;
23682;SDS011;24897;53.514;10.482;2023-03-21T01:39:07;122.10;;;67.87;;
23682;SDS011;24897;53.514;10.482;2023-03-21T01:41:51;112.53;;;64.17;;
23682;SDS011;24897;53.514;10.482;2023-03-21T01:44:52;116.10;;;66.03;;
23682;SDS011;24897;53.514;10.482;2023-03-21T01:47:42;111.03;;;64.37;;
23682;SDS011;24897;53.514;10.482;2023-03-21T01:50:26;121.20;;;65.97;;
23682;SDS011;24897;53.514;10.482;2023-03-21T01:53:10;122.80;;;66.03;;
23682;SDS011;24897;53.514;10.482;2023-03-21T01:55:56;110.83;;;64.00;;
23682;SDS011;24897;53.514;10.482;2023-03-21T01:58:42;115.63;;;64.13;;
23682;SDS011;24897;53.514;10.482;2023-03-21T02:01:28;126.43;;;67.07;;
23682;SDS011;24897;53.514;10.482;2023-03-21T02:04:15;110.43;;;62.83;;
23682;SDS011;24897;53.514;10.482;2023-03-21T02:09:57;131.60;;;68.57;;
23682;SDS011;24897;53.514;10.482;2023-03-21T02:12:41;129.40;;;64.67;;
23682;SDS011;24897;53.514;10.482;2023-03-21T02:15:26;118.57;;;63.83;;
23682;SDS011;24897;53.514;10.482;2023-03-21T02:18:23;142.37;;;69.23;;
23682;SDS011;24897;53.514;10.482;2023-03-21T02:21:21;124.00;;;65.97;;
23682;SDS011;24897;53.514;10.482;2023-03-21T02:27:41;121.27;;;64.83;;
23682;SDS011;24897;53.514;10.482;2023-03-21T02:40:38;125.30;;;64.40;;
23682;SDS011;24897;53.514;10.482;2023-03-21T02:43:25;101.13;;;60.40;;
23682;SDS011;24897;53.514;10.482;2023-03-21T02:46:30;137.20;;;67.50;;
23682;SDS011;24897;53.514;10.482;2023-03-21T02:49:46;126.47;;;65.47;;
23682;SDS011;24897;53.514;10.482;2023-03-21T02:52:39;129.47;;;66.57;;
23682;SDS011;24897;53.514;10.482;2023-03-21T02:55:27;117.57;;;64.20;;
23682;SDS011;24897;53.514;10.482;2023-03-21T02:58:15;143.53;;;70.37;;
23682;SDS011;24897;53.514;10.482;2023-03-21T03:01:02;122.47;;;65.50;;
23682;SDS011;24897;53.514;10.482;2023-03-21T03:03:47;135.17;;;68.97;;
23682;SDS011;24897;53.514;10.482;2023-03-21T03:06:36;131.50;;;66.93;;
23682;SDS011;24897;53.514;10.482;2023-03-21T03:10:16;125.97;;;66.27;;
23682;SDS011;24897;53.514;10.482;2023-03-21T03:13:02;124.03;;;63.73;;
23682;SDS011;24897;53.514;10.482;2023-03-21T03:16:15;133.77;;;66.00;;
23682;SDS011;24897;53.514;10.482;2023-03-21T03:19:09;131.20;;;65.77;;
23682;SDS011;24897;53.514;10.482;2023-03-21T03:22:22;111.23;;;61.00;;
23682;SDS011;24897;53.514;10.482;2023-03-21T03:25:08;116.37;;;63.60;;
23682;SDS011;24897;53.514;10.482;2023-03-21T03:27:58;131.07;;;64.97;;
23682;SDS011;24897;53.514;10.482;2023-03-21T03:30:45;122.27;;;66.03;;
23682;SDS011;24897;53.514;10.482;2023-03-21T03:33:30;121.90;;;64.33;;
23682;SDS011;24897;53.514;10.482;2023-03-21T03:36:17;108.80;;;61.37;;
23682;SDS011;24897;53.514;10.482;2023-03-21T03:39:09;103.10;;;59.80;;
23682;SDS011;24897;53.514;10.482;2023-03-21T03:42:06;122.50;;;65.47;;
23682;SDS011;24897;53.514;10.482;2023-03-21T03:44:57;131.40;;;66.57;;
23682;SDS011;24897;53.514;10.482;2023-03-21T03:47:57;121.17;;;63.90;;
23682;SDS011;24897;53.514;10.482;2023-03-21T03:50:55;135.80;;;67.70;;
23682;SDS011;24897;53.514;10.482;2023-03-21T03:53:52;135.87;;;69.73;;
23682;SDS011;24897;53.514;10.482;2023-03-21T03:56:43;126.60;;;66.03;;
23682;SDS011;24897;53.514;10.482;2023-03-21T03:59:28;111.17;;;62.57;;
23682;SDS011;24897;53.514;10.482;2023-03-21T04:02:13;126.20;;;65.83;;
23682;SDS011;24897;53.514;10.482;2023-03-21T04:04:57;123.60;;;62.93;;
23682;SDS011;24897;53.514;10.482;2023-03-21T04:07:41;126.97;;;64.40;;
23682;SDS011;24897;53.514;10.482;2023-03-21T04:10:25;136.23;;;66.37;;
23682;SDS011;24897;53.514;10.482;2023-03-21T04:13:09;125.97;;;64.50;;
23682;SDS011;24897;53.514;10.482;2023-03-21T04:15:53;115.43;;;62.73;;
23682;SDS011;24897;53.514;10.482;2023-03-21T04:18:39;112.83;;;60.53;;
23682;SDS011;24897;53.514;10.482;2023-03-21T04:21:24;117.17;;;63.37;;
23682;SDS011;24897;53.514;10.482;2023-03-21T04:24:10;117.80;;;61.57;;
23682;SDS011;24897;53.514;10.482;2023-03-21T04:26:54;125.73;;;63.73;;
23682;SDS011;24897;53.514;10.482;2023-03-21T04:29:38;145.50;;;69.30;;
23682;SDS011;24897;53.514;10.482;2023-03-21T04:32:26;114.67;;;61.80;;
23682;SDS011;24897;53.514;10.482;2023-03-21T04:35:10;104.30;;;61.20;;
23682;SDS011;24897;53.514;10.482;2023-03-21T04:37:54;137.07;;;69.93;;
23682;SDS011;24897;53.514;10.482;2023-03-21T04:40:39;131.93;;;67.83;;
23682;SDS011;24897;53.514;10.482;2023-03-21T04:43:23;137.57;;;69.23;;
23682;SDS011;24897;53.514;10.482;2023-03-21T04:46:07;130.80;;;67.30;;
23682;SDS011;24897;53.514;10.482;2023-03-21T04:48:51;134.20;;;67.20;;
23682;SDS011;24897;53.514;10.482;2023-03-21T04:51:35;109.93;;;61.73;;
23682;SDS011;24897;53.514;10.482;2023-03-21T04:54:20;123.10;;;65.27;;
23682;SDS011;24897;53.514;10.482;2023-03-21T04:57:05;125.53;;;66.50;;
23682;SDS011;24897;53.514;10.482;2023-03-21T04:59:49;137.67;;;69.23;;
23682;SDS011;24897;53.514;10.482;2023-03-21T05:02:33;110.53;;;62.67;;
23682;SDS011;24897;53.514;10.482;2023-03-21T05:05:18;121.33;;;66.67;;
23682;SDS011;24897;53.514;10.482;2023-03-21T05:08:02;119.67;;;65.33;;
23682;SDS011;24897;53.514;10.482;2023-03-21T05:10:48;137.53;;;71.20;;
23682;SDS011;24897;53.514;10.482;2023-03-21T05:13:32;127.47;;;69.13;;
23682;SDS011;24897;53.514;10.482;2023-03-21T05:16:16;132.63;;;68.90;;
23682;SDS011;24897;53.514;10.482;2023-03-21T05:19:00;120.43;;;65.47;;
23682;SDS011;24897;53.514;10.482;2023-03-21T05:21:48;111.97;;;62.80;;
23682;SDS011;24897;53.514;10.482;2023-03-21T05:24:33;123.33;;;66.57;;
23682;SDS011;24897;53.514;10.482;2023-03-21T05:27:20;147.40;;;73.47;;
23682;SDS011;24897;53.514;10.482;2023-03-21T05:30:18;148.10;;;73.50;;
23682;SDS011;24897;53.514;10.482;2023-03-21T05:33:03;132.70;;;71.33;;
23682;SDS011;24897;53.514;10.482;2023-03-21T05:35:51;138.30;;;71.33;;
23682;SDS011;24897;53.514;10.482;2023-03-21T05:38:35;155.43;;;75.87;;
23682;SDS011;24897;53.514;10.482;2023-03-21T05:41:19;121.33;;;68.50;;
23682;SDS011;24897;53.514;10.482;2023-03-21T05:44:04;147.27;;;72.60;;
23682;SDS011;24897;53.514;10.482;2023-03-21T05:46:48;134.53;;;70.43;;
23682;SDS011;24897;53.514;10.482;2023-03-21T05:49:32;139.70;;;69.20;;
23682;SDS011;24897;53.514;10.482;2023-03-21T05:52:16;132.77;;;69.03;;
23682;SDS011;24897;53.514;10.482;2023-03-21T05:55:01;146.53;;;72.73;;
23682;SDS011;24897;53.514;10.482;2023-03-21T05:57:46;134.27;;;69.60;;
23682;SDS011;24897;53.514;10.482;2023-03-21T06:00:30;155.53;;;75.33;;
23682;SDS011;24897;53.514;10.482;2023-03-21T06:03:14;142.17;;;69.93;;
23682;SDS011;24897;53.514;10.482;2023-03-21T06:05:59;131.77;;;69.63;;
23682;SDS011;24897;53.514;10.482;2023-03-21T06:08:46;125.47;;;68.43;;
23682;SDS011;24897;53.514;10.482;2023-03-21T06:11:32;148.00;;;71.17;;
23682;SDS011;24897;53.514;10.482;2023-03-21T06:14:19;170.37;;;79.13;;
23682;SDS011;24897;53.514;10.482;2023-03-21T06:17:03;118.90;;;67.03;;
23682;SDS011;24897;53.514;10.482;2023-03-21T06:19:48;140.50;;;71.97;;
23682;SDS011;24897;53.514;10.482;2023-03-21T06:22:33;150.03;;;76.67;;
23682;SDS011;24897;53.514;10.482;2023-03-21T06:25:18;141.00;;;71.40;;
23682;SDS011;24897;53.514;10.482;2023-03-21T06:28:02;158.93;;;78.57;;
23682;SDS011;24897;53.514;10.482;2023-03-21T06:30:46;158.87;;;78.90;;
23682;SDS011;24897;53.514;10.482;2023-03-21T06:33:30;140.63;;;74.00;;
23682;SDS011;24897;53.514;10.482;2023-03-21T06:36:14;146.73;;;75.30;;
23682;SDS011;24897;53.514;10.482;2023-03-21T06:38:58;140.50;;;74.67;;
23682;SDS011;24897;53.514;10.482;2023-03-21T06:41:43;137.60;;;75.70;;
23682;SDS011;24897;53.514;10.482;2023-03-21T06:44:28;144.53;;;76.17;;
23682;SDS011;24897;53.514;10.482;2023-03-21T06:47:13;148.90;;;78.83;;
23682;SDS011;24897;53.514;10.482;2023-03-21T06:49:57;132.57;;;75.03;;
23682;SDS011;24897;53.514;10.482;2023-03-21T06:52:41;115.97;;;69.90;;
23682;SDS011;24897;53.514;10.482;2023-03-21T06:55:25;128.83;;;70.67;;
23682;SDS011;24897;53.514;10.482;2023-03-21T06:58:11;126.13;;;71.40;;
23682;SDS011;24897;53.514;10.482;2023-03-21T07:00:57;123.53;;;72.73;;
23682;SDS011;24897;53.514;10.482;2023-03-21T07:03:42;128.60;;;71.30;;
23682;SDS011;24897;53.514;10.482;2023-03-21T07:06:26;122.47;;;68.83;;
23682;SDS011;24897;53.514;10.482;2023-03-21T07:09:10;107.27;;;63.47;;
23682;SDS011;24897;53.514;10.482;2023-03-21T07:11:55;118.97;;;68.80;;
23682;SDS011;24897;53.514;10.482;2023-03-21T07:14:40;119.50;;;68.27;;
23682;SDS011;24897;53.514;10.482;2023-03-21T07:17:24;110.57;;;68.33;;
23682;SDS011;24897;53.514;10.482;2023-03-21T07:20:09;99.33;;;63.33;;
23682;SDS011;24897;53.514;10.482;2023-03-21T07:22:55;103.07;;;63.63;;
23682;SDS011;24897;53.514;10.482;2023-03-21T07:25:40;97.87;;;61.77;;
23682;SDS011;24897;53.514;10.482;2023-03-21T07:28:25;111.13;;;67.17;;
23682;SDS011;24897;53.514;10.482;2023-03-21T07:31:16;92.07;;;60.87;;
23682;SDS011;24897;53.514;10.482;2023-03-21T07:34:02;92.90;;;60.07;;
23682;SDS011;24897;53.514;10.482;2023-03-21T07:36:46;103.30;;;64.77;;
23682;SDS011;24897;53.514;10.482;2023-03-21T07:39:30;114.23;;;69.10;;
23682;SDS011;24897;53.514;10.482;2023-03-21T07:42:15;111.97;;;67.53;;
23682;SDS011;24897;53.514;10.482;2023-03-21T07:45:00;102.13;;;62.90;;
23682;SDS011;24897;53.514;10.482;2023-03-21T07:47:43;111.67;;;66.70;;
23682;SDS011;24897;53.514;10.482;2023-03-21T07:50:28;120.37;;;69.33;;
23682;SDS011;24897;53.514;10.482;2023-03-21T07:53:12;110.03;;;67.13;;
23682;SDS011;24897;53.514;10.482;2023-03-21T07:55:56;107.03;;;66.50;;
23682;SDS011;24897;53.514;10.482;2023-03-21T07:58:40;108.27;;;66.40;;
23682;SDS011;24897;53.514;10.482;2023-03-21T08:01:25;104.30;;;65.53;;
23682;SDS011;24897;53.514;10.482;2023-03-21T08:04:09;107.50;;;64.37;;
23682;SDS011;24897;53.514;10.482;2023-03-21T08:06:53;97.50;;;62.57;;
23682;SDS011;24897;53.514;10.482;2023-03-21T08:09:38;101.20;;;63.07;;
23682;SDS011;24897;53.514;10.482;2023-03-21T08:12:23;91.67;;;61.27;;
23682;SDS011;24897;53.514;10.482;2023-03-21T08:15:07;103.53;;;65.33;;
23682;SDS011;24897;53.514;10.482;2023-03-21T08:17:52;96.57;;;62.57;;
23682;SDS011;24897;53.514;10.482;2023-03-21T08:20:36;108.00;;;66.87;;
23682;SDS011;24897;53.514;10.482;2023-03-21T08:23:20;98.43;;;64.13;;
23682;SDS011;24897;53.514;10.482;2023-03-21T08:26:06;104.20;;;65.13;;
23682;SDS011;24897;53.514;10.482;2023-03-21T08:28:52;106.10;;;67.10;;
23682;SDS011;24897;53.514;10.482;2023-03-21T08:31:36;90.23;;;60.07;;
23682;SDS011;24897;53.514;10.482;2023-03-21T08:34:22;101.93;;;62.33;;
23682;SDS011;24897;53.514;10.482;2023-03-21T08:37:07;102.03;;;65.97;;
23682;SDS011;24897;53.514;10.482;2023-03-21T08:39:51;103.07;;;66.53;;
23682;SDS011;24897;53.514;10.482;2023-03-21T08:42:39;102.37;;;62.67;;
23682;SDS011;24897;53.514;10.482;2023-03-21T08:45:24;102.47;;;63.47;;
23682;SDS011;24897;53.514;10.482;2023-03-21T08:48:09;98.67;;;60.87;;
23682;SDS011;24897;53.514;10.482;2023-03-21T08:50:53;99.20;;;62.07;;
23682;SDS011;24897;53.514;10.482;2023-03-21T08:53:37;104.20;;;64.13;;
23682;SDS011;24897;53.514;10.482;2023-03-21T08:56:21;102.47;;;63.80;;
23682;SDS011;24897;53.514;10.482;2023-03-21T08:59:05;99.93;;;64.67;;
23682;SDS011;24897;53.514;10.482;2023-03-21T09:01:49;89.93;;;58.90;;
23682;SDS011;24897;53.514;10.482;2023-03-21T09:04:34;87.37;;;59.93;;
23682;SDS011;24897;53.514;10.482;2023-03-21T09:07:19;107.23;;;67.17;;
23682;SDS011;24897;53.514;10.482;2023-03-21T09:10:05;101.27;;;64.63;;
23682;SDS011;24897;53.514;10.482;2023-03-21T09:12:52;100.13;;;63.00;;
23682;SDS011;24897;53.514;10.482;2023-03-21T09:15:37;94.93;;;61.47;;
23682;SDS011;24897;53.514;10.482;2023-03-21T09:18:21;92.43;;;60.97;;
23682;SDS011;24897;53.514;10.482;2023-03-21T09:21:21;92.93;;;62.43;;
23682;SDS011;24897;53.514;10.482;2023-03-21T09:24:06;85.87;;;58.87;;
23682;SDS011;24897;53.514;10.482;2023-03-21T09:26:51;85.03;;;58.37;;
23682;SDS011;24897;53.514;10.482;2023-03-21T09:29:35;80.77;;;58.27;;
23682;SDS011;24897;53.514;10.482;2023-03-21T09:32:20;82.60;;;59.10;;
23682;SDS011;24897;53.514;10.482;2023-03-21T09:35:04;84.77;;;58.20;;
23682;SDS011;24897;53.514;10.482;2023-03-21T09:37:49;89.53;;;59.13;;
23682;SDS011;24897;53.514;10.482;2023-03-21T09:43:50;90.50;;;57.93;;
23682;SDS011;24897;53.514;10.482;2023-03-21T09:46:41;78.90;;;56.70;;
23682;SDS011;24897;53.514;10.482;2023-03-21T09:49:43;72.70;;;53.17;;
23682;SDS011;24897;53.514;10.482;2023-03-21T09:52:34;85.47;;;56.63;;
23682;SDS011;24897;53.514;10.482;2023-03-21T09:55:35;77.00;;;53.73;;
23682;SDS011;24897;53.514;10.482;2023-03-21T10:01:16;80.43;;;55.30;;
23682;SDS011;24897;53.514;10.482;2023-03-21T10:04:15;81.70;;;55.30;;
23682;SDS011;24897;53.514;10.482;2023-03-21T10:07:01;82.37;;;55.60;;
23682;SDS011;24897;53.514;10.482;2023-03-21T10:09:46;71.73;;;51.80;;
23682;SDS011;24897;53.514;10.482;2023-03-21T10:12:33;78.87;;;54.93;;
23682;SDS011;24897;53.514;10.482;2023-03-21T10:15:19;80.13;;;53.60;;
23682;SDS011;24897;53.514;10.482;2023-03-21T10:18:05;79.20;;;54.10;;
23682;SDS011;24897;53.514;10.482;2023-03-21T10:20:53;79.67;;;53.47;;
23682;SDS011;24897;53.514;10.482;2023-03-21T10:23:38;77.97;;;52.63;;
23682;SDS011;24897;53.514;10.482;2023-03-21T10:26:26;80.30;;;55.00;;
23682;SDS011;24897;53.514;10.482;2023-03-21T10:29:13;76.57;;;53.73;;
23682;SDS011;24897;53.514;10.482;2023-03-21T10:31:59;80.17;;;56.57;;
23682;SDS011;24897;53.514;10.482;2023-03-21T10:34:45;86.57;;;58.90;;
23682;SDS011;24897;53.514;10.482;2023-03-21T10:37:33;88.17;;;59.73;;
23682;SDS011;24897;53.514;10.482;2023-03-21T10:40:19;81.87;;;56.80;;
23682;SDS011;24897;53.514;10.482;2023-03-21T10:43:17;86.63;;;55.80;;
23682;SDS011;24897;53.514;10.482;2023-03-21T10:46:12;80.23;;;55.27;;
23682;SDS011;24897;53.514;10.482;2023-03-21T10:49:01;85.53;;;56.47;;
23682;SDS011;24897;53.514;10.482;2023-03-21T10:51:50;78.77;;;52.93;;
23682;SDS011;24897;53.514;10.482;2023-03-21T10:54:39;82.57;;;55.93;;
23682;SDS011;24897;53.514;10.482;2023-03-21T10:57:24;83.17;;;56.97;;
23682;SDS011;24897;53.514;10.482;2023-03-21T11:00:17;86.53;;;57.20;;
23682;SDS011;24897;53.514;10.482;2023-03-21T11:03:04;75.27;;;54.37;;
23682;SDS011;24897;53.514;10.482;2023-03-21T11:05:53;84.03;;;55.17;;
23682;SDS011;24897;53.514;10.482;2023-03-21T11:08:41;87.87;;;58.40;;
23682;SDS011;24897;53.514;10.482;2023-03-21T11:11:34;79.53;;;54.87;;
23682;SDS011;24897;53.514;10.482;2023-03-21T11:17:21;84.50;;;57.87;;
23682;SDS011;24897;53.514;10.482;2023-03-21T11:20:10;84.17;;;54.70;;
23682;SDS011;24897;53.514;10.482;2023-03-21T11:23:04;76.97;;;53.47;;
23682;SDS011;24897;53.514;10.482;2023-03-21T11:25:49;79.67;;;53.67;;
23682;SDS011;24897;53.514;10.482;2023-03-21T11:28:40;77.97;;;54.13;;
23682;SDS011;24897;53.514;10.482;2023-03-21T11:31:38;83.27;;;55.13;;
23682;SDS011;24897;53.514;10.482;2023-03-21T11:34:25;78.60;;;53.63;;
23682;SDS011;24897;53.514;10.482;2023-03-21T11:37:23;75.03;;;51.37;;
23682;SDS011;24897;53.514;10.482;2023-03-21T11:48:47;72.37;;;51.70;;
23682;SDS011;24897;53.514;10.482;2023-03-21T11:54:32;76.77;;;52.23;;
23682;SDS011;24897;53.514;10.482;2023-03-21T12:01:02;76.43;;;50.83;;
23682;SDS011;24897;53.514;10.482;2023-03-21T12:03:46;80.43;;;52.00;;
23682;SDS011;24897;53.514;10.482;2023-03-21T12:06:49;82.27;;;53.73;;
23682;SDS011;24897;53.514;10.482;2023-03-21T12:25:25;77.87;;;52.53;;
23682;SDS011;24897;53.514;10.482;2023-03-21T12:34:23;73.33;;;51.13;;
23682;SDS011;24897;53.514;10.482;2023-03-21T12:40:48;65.70;;;47.47;;
23682;SDS011;24897;53.514;10.482;2023-03-21T12:44:16;72.50;;;49.30;;
23682;SDS011;24897;53.514;10.482;2023-03-21T12:47:05;71.83;;;50.47;;
23682;SDS011;24897;53.514;10.482;2023-03-21T12:56:14;73.10;;;50.60;;
23682;SDS011;24897;53.514;10.482;2023-03-21T12:59:17;77.80;;;52.30;;
23682;SDS011;24897;53.514;10.482;2023-03-21T13:02:35;77.90;;;52.70;;
23682;SDS011;24897;53.514;10.482;2023-03-21T13:08:18;73.93;;;50.97;;
23682;SDS011;24897;53.514;10.482;2023-03-21T13:11:14;69.80;;;49.87;;
23682;SDS011;24897;53.514;10.482;2023-03-21T13:14:07;69.03;;;49.77;;
23682;SDS011;24897;53.514;10.482;2023-03-21T13:20:21;69.87;;;51.00;;
23682;SDS011;24897;53.514;10.482;2023-03-21T13:23:32;60.70;;;46.87;;
23682;SDS011;24897;53.514;10.482;2023-03-21T13:26:19;61.10;;;46.47;;
23682;SDS011;24897;53.514;10.482;2023-03-21T13:32:14;61.97;;;47.10;;
23682;SDS011;24897;53.514;10.482;2023-03-21T13:38:03;60.73;;;46.87;;
23682;SDS011;24897;53.514;10.482;2023-03-21T13:40:56;59.33;;;45.87;;
23682;SDS011;24897;53.514;10.482;2023-03-21T13:43:51;61.53;;;46.07;;
23682;SDS011;24897;53.514;10.482;2023-03-21T13:46:44;62.67;;;47.63;;
23682;SDS011;24897;53.514;10.482;2023-03-21T13:49:41;60.43;;;47.67;;
23682;SDS011;24897;53.514;10.482;2023-03-21T13:52:26;65.03;;;50.10;;
23682;SDS011;24897;53.514;10.482;2023-03-21T13:55:16;64.37;;;48.37;;
23682;SDS011;24897;53.514;10.482;2023-03-21T13:58:31;64.90;;;48.50;;
23682;SDS011;24897;53.514;10.482;2023-03-21T14:01:21;65.17;;;49.20;;
23682;SDS011;24897;53.514;10.482;2023-03-21T14:04:11;64.57;;;48.20;;
23682;SDS011;24897;53.514;10.482;2023-03-21T14:07:02;66.10;;;47.70;;
23682;SDS011;24897;53.514;10.482;2023-03-21T14:09:58;62.43;;;48.63;;
23682;SDS011;24897;53.514;10.482;2023-03-21T14:12:46;61.83;;;47.80;;
23682;SDS011;24897;53.514;10.482;2023-03-21T14:15:36;69.27;;;51.23;;
23682;SDS011;24897;53.514;10.482;2023-03-21T14:18:22;62.87;;;47.27;;
23682;SDS011;24897;53.514;10.482;2023-03-21T14:21:14;58.77;;;45.63;;
23682;SDS011;24897;53.514;10.482;2023-03-21T14:24:01;54.13;;;42.93;;
23682;SDS011;24897;53.514;10.482;2023-03-21T14:26:51;56.87;;;43.90;;
23682;SDS011;24897;53.514;10.482;2023-03-21T14:29:37;62.57;;;46.10;;
23682;SDS011;24897;53.514;10.482;2023-03-21T14:32:22;63.97;;;46.97;;
23682;SDS011;24897;53.514;10.482;2023-03-21T14:35:09;63.73;;;48.03;;
23682;SDS011;24897;53.514;10.482;2023-03-21T14:37:54;64.37;;;46.30;;
23682;SDS011;24897;53.514;10.482;2023-03-21T14:40:44;65.23;;;47.20;;
23682;SDS011;24897;53.514;10.482;2023-03-21T14:43:30;63.80;;;46.10;;
23682;SDS011;24897;53.514;10.482;2023-03-21T14:46:18;65.77;;;47.57;;
23682;SDS011;24897;53.514;10.482;2023-03-21T14:49:11;65.83;;;46.53;;
23682;SDS011;24897;53.514;10.482;2023-03-21T14:52:00;68.53;;;50.13;;
23682;SDS011;24897;53.514;10.482;2023-03-21T14:54:47;75.40;;;50.47;;
23682;SDS011;24897;53.514;10.482;2023-03-21T14:57:32;76.97;;;51.37;;
23682;SDS011;24897;53.514;10.482;2023-03-21T15:00:24;71.10;;;48.17;;
23682;SDS011;24897;53.514;10.482;2023-03-21T15:03:11;74.13;;;52.00;;
23682;SDS011;24897;53.514;10.482;2023-03-21T15:05:56;71.47;;;51.10;;
23682;SDS011;24897;53.514;10.482;2023-03-21T15:09:01;85.93;;;64.97;;
23682;SDS011;24897;53.514;10.482;2023-03-21T15:11:48;70.30;;;49.90;;
23682;SDS011;24897;53.514;10.482;2023-03-21T15:14:34;69.23;;;49.67;;
23682;SDS011;24897;53.514;10.482;2023-03-21T15:17:19;69.90;;;48.93;;
23682;SDS011;24897;53.514;10.482;2023-03-21T15:20:05;72.73;;;50.93;;
23682;SDS011;24897;53.514;10.482;2023-03-21T15:22:57;69.83;;;49.67;;
23682;SDS011;24897;53.514;10.482;2023-03-21T15:25:46;76.20;;;50.87;;
23682;SDS011;24897;53.514;10.482;2023-03-21T15:28:34;76.47;;;51.63;;
23682;SDS011;24897;53.514;10.482;2023-03-21T15:31:19;71.70;;;48.67;;
23682;SDS011;24897;53.514;10.482;2023-03-21T15:34:05;75.13;;;50.77;;
23682;SDS011;24897;53.514;10.482;2023-03-21T15:37:05;78.17;;;52.90;;
23682;SDS011;24897;53.514;10.482;2023-03-21T15:39:51;80.17;;;53.83;;
23682;SDS011;24897;53.514;10.482;2023-03-21T15:42:38;79.73;;;53.70;;
23682;SDS011;24897;53.514;10.482;2023-03-21T15:45:24;81.37;;;57.03;;
23682;SDS011;24897;53.514;10.482;2023-03-21T15:48:11;91.37;;;58.37;;
23682;SDS011;24897;53.514;10.482;2023-03-21T15:53:50;82.27;;;57.40;;
23682;SDS011;24897;53.514;10.482;2023-03-21T15:56:36;89.57;;;61.93;;
23682;SDS011;24897;53.514;10.482;2023-03-21T15:59:26;94.17;;;58.40;;
23682;SDS011;24897;53.514;10.482;2023-03-21T16:02:15;97.37;;;62.03;;
23682;SDS011;24897;53.514;10.482;2023-03-21T16:08:27;97.23;;;56.37;;
23682;SDS011;24897;53.514;10.482;2023-03-21T16:14:10;69.07;;;46.43;;
23682;SDS011;24897;53.514;10.482;2023-03-21T16:16:55;64.67;;;46.97;;
23682;SDS011;24897;53.514;10.482;2023-03-21T16:19:41;73.37;;;46.03;;
23682;SDS011;24897;53.514;10.482;2023-03-21T16:22:26;59.33;;;40.50;;
23682;SDS011;24897;53.514;10.482;2023-03-21T16:25:12;50.97;;;36.63;;
23682;SDS011;24897;53.514;10.482;2023-03-21T16:27:57;52.67;;;38.20;;
23682;SDS011;24897;53.514;10.482;2023-03-21T16:30:41;49.63;;;37.07;;
23682;SDS011;24897;53.514;10.482;2023-03-21T16:33:26;46.77;;;35.27;;
23682;SDS011;24897;53.514;10.482;2023-03-21T16:36:18;50.50;;;37.33;;
23682;SDS011;24897;53.514;10.482;2023-03-21T16:42:00;48.93;;;35.27;;
23682;SDS011;24897;53.514;10.482;2023-03-21T16:44:44;46.60;;;36.53;;
23682;SDS011;24897;53.514;10.482;2023-03-21T16:47:28;46.33;;;35.47;;
23682;SDS011;24897;53.514;10.482;2023-03-21T16:50:20;45.90;;;35.63;;
23682;SDS011;24897;53.514;10.482;2023-03-21T16:53:05;48.70;;;37.30;;
23682;SDS011;24897;53.514;10.482;2023-03-21T16:55:49;52.43;;;38.60;;
23682;SDS011;24897;53.514;10.482;2023-03-21T16:58:34;51.90;;;38.40;;
23682;SDS011;24897;53.514;10.482;2023-03-21T17:01:19;52.07;;;37.90;;
23682;SDS011;24897;53.514;10.482;2023-03-21T17:04:08;49.57;;;37.23;;
23682;SDS011;24897;53.514;10.482;2023-03-21T17:06:53;51.10;;;36.90;;
23682;SDS011;24897;53.514;10.482;2023-03-21T17:09:39;50.47;;;36.80;;
23682;SDS011;24897;53.514;10.482;2023-03-21T17:12:26;47.30;;;35.27;;
23682;SDS011;24897;53.514;10.482;2023-03-21T17:15:12;52.60;;;39.03;;
23682;SDS011;24897;53.514;10.482;2023-03-21T17:17:57;50.10;;;38.57;;
23682;SDS011;24897;53.514;10.482;2023-03-21T17:20:41;49.40;;;37.90;;
23682;SDS011;24897;53.514;10.482;2023-03-21T17:23:26;52.97;;;37.37;;
23682;SDS011;24897;53.514;10.482;2023-03-21T17:26:13;52.47;;;38.97;;
23682;SDS011;24897;53.514;10.482;2023-03-21T17:29:02;54.17;;;38.13;;
23682;SDS011;24897;53.514;10.482;2023-03-21T17:31:46;53.60;;;40.60;;
23682;SDS011;24897;53.514;10.482;2023-03-21T17:34:33;52.40;;;38.70;;
23682;SDS011;24897;53.514;10.482;2023-03-21T17:37:18;57.13;;;41.47;;
23682;SDS011;24897;53.514;10.482;2023-03-21T17:40:03;56.50;;;40.93;;